International TAF

Brunei, China, Hong Kong, Malaysia, Philippines, Taiwan

The availability of aerodrome forecasts from overseas locations is dependent on the regular international exchange of data. Some locations may at times be absent. If this problem persists, please advise webav@bom.gov.au

 back to top

ZSPD 22/07/2017 UTC

TAF ZSPD 220314Z 2206/2306 19004MPS 6000 SCT020 TX39/2206Z
TN30/2221Z
TEMPO 2206/2210 TSRA BKN011 FEW030CB

WIDD 22/07/2017 UTC

TAF WIDD 212300Z 2200/2224 16010KT 9999 SCT014
BECMG 2214/2216 14005KT FEW014

WAMM 22/07/2017 UTC

TAF WAMM 2206/2312 14008KT 9999 SCT022
PROB40 TEMPO 2211/2214 7000 -RA SCT018
BECMG 2215/2217 07002KT FEW022

WBSB 21/07/2017 UTC

TAF WBSB 212300Z 2200/2306 20003KT 9999 FEW015
BECMG 2204/2206 28008KT FEW016 FEW017CB
TEMPO 2204/2206 8000 -SHRA

WBKK 21/07/2017 UTC

TAF WBKK 212300Z 2200/2300 22007KT 9999 FEW014

WBGG 21/07/2017 UTC

TAF WBGG 212300Z 2200/2300 15003KT 9999 FEW015 SCT150 BKN300
TEMPO 2208/2211 4000 TSRA FEW015CB SCT016 BKN150

VHHH 21/07/2017 UTC

TAF VHHH 212300Z 2200/2306 10010KT 9000 FEW025 TX33/2206Z
TX31/2306Z TN26/2300Z TEMPO 2201/2207 2500 -TSRA SHRA FEW015CB
SCT025 TEMPO 2216/2224 01010KT TEMPO 2300/2306 03015G25KT 2000
TSRA SHRA FEW008CB SCT020

VMMC 21/07/2017 UTC

TAF VMMC 212300Z 2200/2306 09010KT 9999 FEW020
TEMPO 2200/2206 03008KT 3500 SHRA FEW010CB SCT020
TEMPO 2218/2306 02010KT
TEMPO 2222/2306 3500 SHRA FEW010CB SCT020

ZGSZ 22/07/2017 UTC

TAF ZGSZ 220309Z 2206/2306 10004MPS 6000 FEW030 TX33/2207Z
TN27/2222Z
TEMPO 2206/2210 SHRA SCT011 FEW020CB BKN030 TEMPO 2302/2306 TSRA
SCT010 FEW015CB BKN020

RCTP 21/07/2017 UTC

TAF RCTP 212300Z 2200/2306 36010KT 9999 FEW015 SCT045
TEMPO 2206/2212 08018G28KT
BECMG 2212/2214 20005KT FEW015 BKN032
TEMPO 2218/2224 SCT008 BKN016 BKN035
BECMG 2300/2302 32005KT

RCKH 21/07/2017 UTC

TAF RCKH 212300Z 2200/2306 28005KT 8000 FEW015 BKN032
TEMPO 2203/2209 16013G23KT 3200 SHRA FEW008 FEW014CB BKN015
BKN035
BECMG 2211/2213 15010KT
BECMG 2218/2220 05005KT
BECMG 2300/2302 27005KT

ZGGG 22/07/2017 UTC

TAF ZGGG 220306Z 2206/2306 09004MPS 8000 SCT040 TX35/2207Z
TN27/2222Z
TEMPO 2206/2212 2500 TSRA SCT011 SCT030CB BKN033

ZBAA 22/07/2017 UTC

TAF ZBAA 220320Z 2206/2306 18004MPS 6000 NSC TX28/2207Z TN22/2221Z

ZSSS 22/07/2017 UTC

TAF ZSSS 220310Z 2206/2306 19004MPS 6000 NSC TX40/2206Z TN31/2220Z

ZBTJ 22/07/2017 UTC

TAF ZBTJ 220300Z 2206/2306 05004MPS 3000 BR NSC TX27/2207Z
TN24/2221Z
BECMG 2301/2302 2400 -RA BR

ZBYN 22/07/2017 UTC

TAF ZBYN 220311Z 2206/2306 09004MPS 6000 NSC TX34/2207Z TN21/2221Z
TEMPO 2206/2210 -TSRA FEW040CB

ZSHC 22/07/2017 UTC

TAF ZSHC 220305Z 2206/2306 27003MPS 6000 NSC TX40/2207Z TN29/2221Z

ZSOF 22/07/2017 UTC

TAF ZSOF 220301Z 2206/2306 18003MPS 4000 HZ NSC TX39/2207Z
TN28/2221Z

ZWWW 22/07/2017 UTC

TAF ZWWW 220315Z 2206/2306 36004MPS CAVOK TX33/2208Z TN23/2223Z
BECMG 2213/2214 18004MPS BECMG 2302/2303 36004MPS

ZYTL 22/07/2017 UTC

TAF ZYTL 220307Z 2206/2306 02004MPS 6000 SCT033 TX30/2206Z
TN23/2221Z

RPLL 21/07/2017 UTC

TAF RPLL 212300Z 2200/2306 22004KT 9999 FEW023 BKN100
TX32/2206Z TN26/2221Z
TEMPO 2200/2206 26012KT 9000 -SHRA SCT023 BKN090
TEMPO 2206/2212 25011KT 9000 -TSRA FEW022CB SCT023 BKN100

RPVM 21/07/2017 UTC

TAF RPVM 212300Z 2200/2306 23004KT 9999 FEW020 BKN090
TEMPO 2200/2206 25006KT 9000 -SHRA FEW018CB SCT020 OVC090
TEMPO 2212/2218 24009KT 8000 -TSRA FEW018CB SCT020 OVC090

RPMZ 21/07/2017 UTC

TAF RPMZ 212300Z 2200/2224 27004KT 9999 FEW017 BKN100
TEMPO 2200/2206 24004KT 8000 -SHRA SCT017CB OVC100

Australian International

The availability of aerodrome forecasts from overseas locations is dependent on the regular international exchange of data. Some locations may at times be absent. If this problem persists, please advise webav@bom.gov.au

 back to top

YMML 21/07/2017 UTC

TAF YMML 212317Z 2200/2306
36024G40KT CAVOK
FM221600 34018G32KT 9999 FEW035
FM230300 34015G25KT 9999 -SHRA FEW025 BKN035
RMK FM220000 MOD/SEV TURB BLW 5000FT TILL222400
FM230000 MOD TURB BLW 5000FT
T 09 11 11 10 Q 1019 1016 1014 1015

YSSY 21/07/2017 UTC

TAF YSSY 212259Z 2200/2306
29008KT CAVOK
FM230100 32015KT CAVOK
RMK FM221800 MOD TURB BLW 5000FT
T 13 17 18 15 Q 1023 1020 1018 1018

YBBN 21/07/2017 UTC

TAF YBBN 212325Z 2200/2306
21007KT CAVOK
FM220200 07008KT 9999 FEW030
FM220900 VRB06KT 9999 FEW040
FM221200 24005KT CAVOK
FM230000 31010KT CAVOK
RMK
T 16 19 18 15 Q 1024 1021 1020 1022

YSCB 21/07/2017 UTC

TAF AMD YSCB 212337Z 2123/2224
VRB03KT 0500 FZFG BKN002
FM220000 VRB03KT 0500 FG BKN002
BECMG 2200/2201 30008KT 9999 BKN004
BECMG 2201/2202 30014KT CAVOK
FM221000 30006KT 9999 FEW015
FM222300 30014KT CAVOK
PROB30 2201/2202 2000 BR BKN002
PROB30 2217/2222 3000 BR FEW002
RMK FM221200 MOD TURB BLW 5000FT
T M02 09 12 06 Q 1023 1021 1019 1019

YBCS 21/07/2017 UTC

TAF YBCS 212340Z 2200/2224
14012KT 9999 SCT030
RMK
T 23 26 25 22 Q 1019 1017 1016 1017

YBAS 21/07/2017 UTC

TAF YBAS 212310Z 2200/2224
03005KT CAVOK
FM220300 13007KT CAVOK
FM221500 30004KT CAVOK
RMK
T 16 23 25 19 Q 1023 1021 1019 1020

YBMA 22/07/2017 UTC

TAF YBMA 220433Z 2206/2218
16010KT CAVOK
FM221000 19005KT CAVOK
RMK
T 26 19 14 13 Q 1016 1017 1019 1019

YPAD 21/07/2017 UTC

TAF AMD YPAD 212313Z 2200/2306
01014KT CAVOK
FM220100 33018KT CAVOK
FM220800 03008KT CAVOK
FM221500 03008KT 9999 SCT010 SCT020
FM221700 03006KT 9999 -DZ BKN008
FM230000 30014KT 9999 SHRA FEW015 BKN025
INTER 2217/2224 3000 DZ BKN008
INTER 2300/2306 5000 SHRA BKN015
RMK
T 14 17 17 14 Q 1017 1015 1014 1014

YPDN 21/07/2017 UTC

TAF YPDN 212311Z 2200/2306
12010KT CAVOK
FM220600 33008KT CAVOK
FM221400 14005KT CAVOK
FM230000 11010KT CAVOK
RMK
T 24 30 32 28 Q 1016 1015 1012 1014

YPTN 21/07/2017 UTC

TAF YPTN 212310Z 2200/2224
12010KT CAVOK
FM220800 13005KT CAVOK
RMK
T 23 29 32 27 Q 1018 1016 1013 1014

YPPH 22/07/2017 UTC

TAF AMD YPPH 220339Z 2204/2306
29008KT 9999 -SHRA SCT030
FM220900 30008KT 9999 -SHRA BKN030
INTER 2206/2306 4000 SHRA SCT015
RMK
T 17 17 15 13 Q 1018 1017 1018 1018

YPLM 21/07/2017 UTC

TAF YPLM 212302Z 2200/2224
17010KT CAVOK
RMK
T 14 22 25 25 Q 1020 1019 1016 1016

YCAR 22/07/2017 UTC

TAF YCAR 220237Z 2204/2212
17008KT CAVOK
FM220500 20014KT CAVOK
RMK
T 22 21 18 Q 1020 1018 1019

YPCC 21/07/2017 UTC

TAF YPCC 212302Z 2200/2224
13016KT 9999 -SHRA SCT022
RMK
T 25 26 26 26 Q 1015 1016 1014 1013

YPPD 21/07/2017 UTC

TAF YPPD 212302Z 2200/2224
VRB03KT CAVOK
FM220500 34010KT CAVOK
FM221500 VRB03KT CAVOK
PROB30 2218/2224 0300 FG BKN001
RMK
T 19 26 27 24 Q 1016 1016 1013 1014

YBTL 21/07/2017 UTC

TAF YBTL 212328Z 2200/2224
10010KT 9999 FEW035
FM220200 06014KT 9999 FEW035
FM220900 12007KT 9999 FEW025
FM221300 16006KT 9999 SCT025
FM222300 12010KT 9999 SCT030
RMK
T 23 25 24 20 Q 1020 1018 1017 1018

YMHB 21/07/2017 UTC

TAF YMHB 212328Z 2200/2224
33010KT 9999 FEW035
FM220500 34012KT 9999 BKN035
FM221400 32014KT 9999 -RA FEW020 BKN030
RMK FM220000 MOD/SEV TURB BLW 5000FT
T 08 12 13 10 Q 1011 1007 1005 1004

YPXM 21/07/2017 UTC

TAF YPXM 212302Z 2200/2224
12014KT 9999 -SHRA BKN006
INTER 2200/2224 0500 SHRA BKN001
RMK
T 23 24 25 24 Q 1016 1016 1014 1014

New Zealand

The availability of aerodrome forecasts from overseas locations is dependent on the regular international exchange of data. Some locations may at times be absent. If this problem persists, please advise webav@bom.gov.au

 back to top

NZAA 21/07/2017 UTC

TAF NZAA 212310Z 2200/2300 30012KT 9999 -SHRA SCT025 BKN050
BECMG 2200/2202 28018G30KT
TEMPO 2200/2204 4000 SHRA FEW020TCU
TEMPO 2204/2212 7000 SHRA
BECMG 2208/2210 24012KT

NZWN 22/07/2017 UTC

TAF COR NZWN 220003Z 2200/2300 19030G45KT 9999 BKN014
TEMPO 2200/2204 7000 RADZ
TEMPO 2204/2209 4000 RA BKN006 FEW020TCU
BECMG 2212/2214 19025G35KT SCT012 BKN018
BECMG 2220/2222 18015G25KT

NZCH 21/07/2017 UTC

TAF NZCH 212305Z 2200/2300 24020G30KT 3000 RADZ BKN008
TEMPO 2200/2204 8000 -RADZ BKN014
FM220400 24020G30KT 9999 -RADZ BKN018
TEMPO 2205/2209 6000 RA BKN014
BECMG 2207/2209 21012KT
FM221700 27005KT 9999 SCT020

YLHI 21/07/2017 UTC

TAF AMD YLHI 212314Z 2123/2224
21015G25KT 9999 -SHRA SCT030
FM220700 21012KT 9999 -SHRA SCT030
FM221300 23008KT 9999 SCT040
FM222200 29010KT 9999 SCT030
INTER 2123/2211 21015G25KT 4000 SHRA SCT015
RMK FM212300 MOD TURB BLW 5000FT TILL220700
T 17 18 18 16 Q 1018 1018 1018 1019

YSNF 22/07/2017 UTC

TAF AMD YSNF 220021Z 2200/2224
23025G35KT 9999 -SHRA SCT030 BKN050
FM220600 23018G28KT 9999 -SHRA SCT030
FM222000 23014KT 9999 -SHRA SCT035
INTER 2200/2206 VRB30G45KT 2000 SHRA SCT015
INTER 2206/2212 VRB30G40KT 5000 SHRA SCT015
RMK FM220000 MOD TURB BLW 5000FT TILL221400
T 18 18 16 16 Q 1012 1011 1013 1015

Indonesia, Malaysia, Myanmar, Singapore, Thailand, Vietnam

The availability of aerodrome forecasts from overseas locations is dependent on the regular international exchange of data. Some locations may at times be absent. If this problem persists, please advise webav@bom.gov.au

 back to top

WADA

TAF not available.

WAAA 22/07/2017 UTC

TAF WAAA 220500Z 2206/2312 30008KT 9000 FEW020 BECMG 2211/2213 10004KT BECMG 2301/2303
30010KT

WIII 22/07/2017 UTC

TAF WIII 220500Z 2206/2312 07010KT 8000 FEW022
BECMG 2212/2214 VRB05KT 5000 HZ SCT020

WIHH 22/07/2017 UTC

TAF WIHH 211700Z 2118/2218 20003KT 4000 HZ SCT022 BECMG 2202/2204 04008KT 6000 SCT020
TEMPO 2210/2213 30010KT 5000 RA FEW018CB SCT016

WIMM 22/07/2017 UTC

TAF WIMM 212300Z 2200/2224 VRB03KT 5000 HZ FEW017CB BKN018
BECMG 2205/2206 06010KT 9000 SCT018
BECMG 2210/2212 VRB03KT 4000 HZ

WIPP 22/07/2017 UTC

TAF WIPP 211700Z 2118/2218 15006KT 9999 SCT012
TEMPO 2121/2124 00000KT 3000 BR

WIKD

TAF not available.

WARR 22/07/2017 UTC

TAF WARR 220500Z 2206/2306 10012KT 9999 FEW020
BECMG 2217/2219 26005KT
BECMG 2220/2222 5000 HZ
BECMG 2300/2302 11010KT 9999 NSW

WADD 22/07/2017 UTC

TAF WADD 220500Z 2206/2306 09010KT 9999 SCT017
TEMPO 2212/2216 BKN016
TEMPO 2220/2224 VRB05KT

WRRA

TAF not available.

WALL 22/07/2017 UTC

TAF WALL 212300Z 2200/2306 25006KT 9000 SCT017 BECMG 2203/2206 17006KT 9999 FEW018

WSSS 21/07/2017 UTC

TAF WSSS 212300Z 2200/2306 17009KT 9999 FEW018CB SCT020

WSAP 21/07/2017 UTC

TAF WSAP 212300Z 2200/2306 17009KT 9999 FEW018CB SCT020

WMKK 21/07/2017 UTC

TAF WMKK 212300Z 2200/2306 16008KT 9999 FEW025 SCT140 BKN280

WMSA 21/07/2017 UTC

TAF WMSA 212300Z 2200/2300 15008KT 9999 FEW025 SCT140 BKN280

WMKP 21/07/2017 UTC

TAF WMKP 212300Z 2200/2300 02005KT 9000 FEW025 SCT140 BKN270
TEMPO 2202/2206 5000 RA FEW010 FEW017CB SCT023

WMKJ 21/07/2017 UTC

TAF WMKJ 212300Z 2200/2300 18005KT 9999 FEW023 SCT140 BKN280

WMKD 22/07/2017 UTC

TAF WMKD 220500Z 2206/2306 17007KT 9999 FEW019 SCT160 BKN280 BECMG
2209/2211 FEW017CB

WMKB 22/07/2017 UTC

TAF WMKB 220500Z 2206/2306 24010KT 7000 FEW020 SCT140 BKN280

VTBD 21/07/2017 UTC

TAF VTBD 212300Z 2200/2306 18005KT 9999 FEW020
BECMG 2202/2204 24008KT
TEMPO 2208/2213 26012KT 6000 -TSRA FEW018CB SCT030
BECMG 2214/2216 18005KT
BECMG 2302/2304 24008KT

VTBS 21/07/2017 UTC

TAF VTBS 212300Z 2200/2306 26003KT 9999 FEW020
BECMG 2202/2204 20010KT
TEMPO 2209/2214 25015KT 6000 -TSRA FEW018CB SCT030
BECMG 2218/2220 26005KT
BECMG 2302/2304 20010KT

VTBU 21/07/2017 UTC

TAF VTBU 212300Z 2200/2224 02004KT 8000 FEW020 SCT100
BECMG 2201/2203 24008KT 9999
TEMPO 2206/2211 VRB10KT 5000 -SHRA FEW018CB SCT035 BKN100
BECMG 2211/2213 18006KT 7000

VTCC 21/07/2017 UTC

TAF VTCC 212300Z 2200/2306 18005KT 9999 BKN035
TEMPO 2208/2212 VRB10G25KT 4000 TSRA FEW025CB BKN030

VTSP 21/07/2017 UTC

TAF VTSP 212300Z 2200/2306 26012KT 8000 FEW018 BKN100
PROB30 TEMPO 2205/2209 26010G30KT 3000 TSRA FEW016CB SCT020

VTSS 21/07/2017 UTC

TAF VTSS 212300Z 2200/2224 VRB02KT 9999 FEW020 SCT100
BECMG 2201/2203 22010KT
BECMG 2213/2215 VRB02KT

VVTS 21/07/2017 UTC

TAF VVTS 212300Z 2200/2306 24009KT 9999 SCT015 BKN040
TEMPO 2206/2212 5000 -SHRA SCT015 FEW017CB BKN040

VDPP 21/07/2017 UTC

TAF VDPP 212300Z 2200/2218 24008KT 9999 SCT017 SCT040
TEMPO 2205/2210 5000 TSRA SCT015 FEW017CB BKN040

VVNB 21/07/2017 UTC

TAF VVNB 212300Z 2200/2224 33007KT 6000 FEW020
TEMPO 2203/2207 4000 TSRA SCT010 FEW027CB BKN050
TEMPO 2210/2214 4000 TSRA SCT010 FEW027CB BKN050

VYYY 21/07/2017 UTC

TAF VYYY 212300Z 2200/2224 19005KT 7000 BKN015 FEW020CB OVC110
TEMPO 2204/2206 -RA

South America

The availability of aerodrome forecasts from overseas locations is dependent on the regular international exchange of data. Some locations may at times be absent. If this problem persists, please advise webav@bom.gov.au

 back to top

SAEZ 21/07/2017 UTC

TAF SAEZ 212300Z 2200/2224 06005KT CAVOK TX19/2218Z TN08/2210Z
PROB40 2206/2211 4000 BR NSC
BECMG 2212/2215 02010KT 9999 SCT040

SAVC 22/07/2017 UTC

TAF SAVC 212300Z 2200/2224 36002KT CAVOK TX15/2119Z TN05/2212Z

SCIE 22/07/2017 UTC

TAF AMD SCIE 220114Z 2202/2224 34004KT 2500 BKN003 BKN200 TX11/2218Z
TN05/2210Z TEMPO 2206/2212 14004KT 4000 BR BKN005 BKN008 BECMG 2215/
2217 24004KT SCT010 BKN020 TEMPO 2221/2224 6000 SHRA BKN030 OVC050

SACO 21/07/2017 UTC

TAF SACO 212300Z 2200/2224 36005KT CAVOK TX23/2218Z TN02/2211Z
BECMG 2208/2210 VRB02KT 7000 NSC
BECMG 2212/2216 36010G25KT CAVOK

SCIP 22/07/2017 UTC

TAF SCIP 212230Z 2200/2300 15015KT 9999 SCT020 TN14/2211Z TX21/2120Z
BECMG 2203/2205 15010KT
TEMPO 2209/2215 12015KT 8000 -SHRA BKN020
BECMG 2216/2218 12015KT
TEMPO 2219/2222 15010G20KT 7000 -SHRA BKN020

SAZM 21/07/2017 UTC

TAF SAZM 212300Z 2200/2224 05005KT CAVOK TX16/2218Z TN08/2210Z
PROB40 2201/2205 7000 NSC
BECMG 2206/2207 36010KT
BECMG 2212/2214 36010G20KT
BECMG 2218/2220 02010KT

SAME 21/07/2017 UTC

TAF SAME 212300Z 2200/2224 05005KT CAVOK TX19/2220Z TN03/2210Z
TEMPO 2212/2214 00000KT 5000 FUBR SKC

SUMU 21/07/2017 UTC

TAF SUMU 212330Z 2200/2224 10005KT 9999 SCT020 TX18/2218Z TN04/2210Z
TEMPO 2200/2210 00000KT 1500 BR BKN010 PROB40 TEMPO 2201/2209 0500 FG
BKN005 BECMG 2210/2212 02015KT

SAZN 22/07/2017 UTC

TAF AMD SAZN 220300Z 2200/2224 VRB03KT CAVOK TX20/2218Z TN05/2210Z
BECMG 2204/2206 6000 NSC BECMG 2213/2215 29015KT CAVOK BECMG
2218/2220 29010G20KT

SCTE 21/07/2017 UTC

TAF COR SCTE 212240Z 2200/2224 01007KT 9999 BKN040
TN07/2210Z TX10/2218Z
BECMG 2208/2210 8000 -RA OVC025
BECMG 2211/2213 01015G27KT
TEMPO 2215/2219 5000 RA SHRA OVC015
BECMG 2220/2222 29015KT 8000 -SHRA BKN040

SCCI 21/07/2017 UTC

TAF SCCI 212235Z 2200/2300 03012KT 9000 SCT010 BKN030
TN01/2203Z TX06/2216Z
TEMPO 2200/2209 09005KT 6000 -RA BKN010
BECMG 2201/2203 35015KT
BECMG 2205/2207 33015G25KT
BECMG 2209/2211 29020G35KT FEW040
BECMG 2216/2218 29015KT

SAWG 22/07/2017 UTC

TAF SAWG 212300Z 2200/2224 VRB05KT CAVOK TX09/2219Z TN00/2212Z
BECMG 2203/2206 32020G38KT 9999 -DZ SCT020 BKN050

SAAR 21/07/2017 UTC

TAF SAAR 212300Z 2200/2224 05005KT 7000 NSC TX20/2218Z TN07/2210Z
PROB40 2204/2211 02005KT 2000 BR NSC
BECMG 2212/2214 02015KT CAVOK

SAZS 21/07/2017 UTC

TAF SAZS 212300Z 2200/2224 29015KT 9999 FEW045 SCT090 TX11/2218Z
TN02/2210Z
BECMG 2203/2205 29010KT SCT015 BKN100 PROB30 2204/2208 4000
BR
BECMG 2213/2216 29015G25KT SCT030
BECMG 2219/2221 8000 RA BKN030 OVC100

SCEL 22/07/2017 UTC

TAF SCEL 212230Z 2200/2224 19007KT CAVOK TX16/2218Z TN02/2210Z BECMG
2200/2202 VRB02KT BECMG 2206/2208 6000 TEMPO 2208/2214
35004KT 2500 BR SCT006 BKN008 BECMG 2217/2219 18007KT

SAWH 22/07/2017 UTC

TAF SAWH 212300Z 2200/2224 05008KT 9999 DZ BKN012 BKN050
TX04/2219Z
TNM01/2212Z PROB30
TEMPO 2204/2207 5000 BR DZ

Guam, Japan, Korea

The availability of aerodrome forecasts from overseas locations is dependent on the regular international exchange of data. Some locations may at times be absent. If this problem persists, please advise webav@bom.gov.au

 back to top

PGUA 22/07/2017 UTC

TAF PGUA 220200Z 2202/2308 11009KT 9999 VCSH BKN015 BKN020
QNH2987INS
BECMG 2203/2204 11009KT 9999 VCSH SCT015 BKN020 QNH2981INS
TEMPO 2204/2208 BKN015
TEMPO 2300/2308 8000 -SHRA BKN018 TX31/2205Z TN25/2218Z

PGUM 21/07/2017 UTC

TAF PGUM 212320Z 2200/2306 09012KT P6SM VCSH SCT029 SCT050

PGSN 21/07/2017 UTC

TAF PGSN 212320Z 2200/2224 08012KT P6SM VCSH SCT022

PTRO 21/07/2017 UTC

TAF PTRO 212320Z 2200/2224 28012KT P6SM VCSH SCT016 BKN120 BKN290
TEMPO 2200/2204 6SM SHRA BKN015 BKN120 OVC250
FM220600 21013G22KT P6SM VCSH SCT016 SCT030 BKN120

RJOO

21/07/2017 UTC

TAF RJOO 212311Z 2200/2306 12004KT 9999 FEW025 SCT045 BECMG
2203/2205 22010KT BECMG 2209/2211 25006KT BECMG 2300/2303
22006KT

RJOB 21/07/2017 UTC

TAF RJOB 212309Z 2200/2306 14005KT 9999 FEW020 TEMPO 2207/2210 TS
FEW010 FEW025CB BKN030 BECMG 2221/2300 20006KT

RJGG 22/07/2017 UTC

TAF AMD RJGG 220207Z 2202/2306 16014KT 9999 FEW015 TEMPO 2205/2209
FEW010 SCT020 FEW020CB TEMPO 2221/2303 4000 SHRA BR

RJCC 21/07/2017 UTC

TAF RJCC 212305Z 2200/2306 35013KT 9999 FEW008 BKN015 TEMPO
2200/2203 4000 -SHRA BR FEW005 BKN008 BECMG 2221/2300
17013KT TEMPO 2221/2300 FEW005 BKN008

RJSS 21/07/2017 UTC

TAF RJSS 212305Z 2200/2306 14008KT 8000 -SHRA FEW010 BKN030 BKN040
TEMPO 2203/2209 3000 TSRA BR FEW005 SCT010 BKN030 FEW030CB

RJFK 22/07/2017 UTC

TAF AMD RJFK 220326Z 2203/2306 20005KT 9999 -SHRA FEW015 BKN030
TEMPO 2203/2209 4000 TSRA BR FEW010 SCT015 BKN020 FEW025CB
BECMG 2208/2210 33003KT BECMG 2303/2306 19005KT

RJAA 21/07/2017 UTC

TAF RJAA 212305Z 2200/2306 18009KT 9999 FEW020 SCT030

RJBB 21/07/2017 UTC

TAF RJBB 212305Z 2200/2306 35004KT 9999 FEW025 SCT045 BECMG
2201/2203 25008KT TEMPO 2208/2211 TS FEW020 FEW025CB
BKN045

RJTT 21/07/2017 UTC

TAF RJTT 212305Z 2200/2306 19018KT 9999 FEW020 SCT040 TEMPO
2215/2218 BKN008

RJFF 21/07/2017 UTC

TAF RJFF 212313Z 2200/2306 16005KT 9999 FEW015 SCT040 BECMG
2202/2204 32011KT BECMG 2212/2215 15005KT BECMG 2300/2303
31008KT

RJFT 21/07/2017 UTC

TAF RJFT 212314Z 2200/2306 23005KT 9999 FEW010 SCT020 BKN030 TEMPO
2205/2212 3000 TSRA BR FEW010 SCT020 BKN030 FEW030CB BECMG
2212/2215 13003KT BECMG 2221/2300 22005KT

RJFU 21/07/2017 UTC

TAF RJFU 212308Z 2200/2306 14005KT 9999 FEW020 SCT030 BECMG
2202/2204 31005KT BECMG 2212/2215 15004KT BECMG 2303/2306
24007KT

ROAH 21/07/2017 UTC

TAF ROAH 212305Z 2200/2306 18005KT 9999 FEW020 BECMG 2200/2202
33007KT

RKSS 21/07/2017 UTC

TAF RKSS 212300Z 2200/2306 21006KT 4200 BR FEW010 BKN025 OVC180
TX31/2204Z TN25/2220Z TX30/2305Z
BECMG 2201/2202 7000 NSW SCT030
TEMPO 2206/2208 27007KT -RA BKN025
BECMG 2212/2213 4200 BR FEW010 BKN025 OVC080
TEMPO 2217/2221 2800 -RA
TEMPO 2302/2306 27007KT -RA

RKSI 21/07/2017 UTC

TAF RKSI 212300Z 2200/2306 19007KT 4200 BR FEW005 SCT020 BKN200
TX30/2206Z TN25/2220Z TX29/2305Z
BECMG 2202/2203 22007KT 6000 NSW
BECMG 2213/2214 19006KT 3500 BR FEW004 BKN020 OVC100
TEMPO 2216/2220 2800 -RA
BECMG 2220/2221 2500
BECMG 2300/2301 23009KT 7000 NSW

RKSM 21/07/2017 UTC

TAF RKSM 212300Z 2200/2306 21006KT 4000 BR BKN030 BKN200 BECMG
2201/2202 21006KT 4800 BR BKN030 BKN200 TX32/2206Z
TN26/2221Z

RKPK 21/07/2017 UTC

TAF RKPK 212300Z 2200/2306 33006KT 9999 SCT030 BKN200
TX34/2206Z TN26/2221Z
BECMG 2201/2202 19008KT
TEMPO 2206/2214 21006KT 4800 -RA BR OVC030

RKPC 21/07/2017 UTC

TAF RKPC 212300Z 2200/2306 07005KT 9999 FEW030
TX34/2206Z TN27/2220Z TX33/2306Z
BECMG 2201/2202 28012KT
BECMG 2212/2213 21006KT
BECMG 2301/2302 28010KT

Indonesia, Pakistan, Singapore, India, Sri Lanka, United Arab Emirates

The availability of aerodrome forecasts from overseas locations is dependent on the regular international exchange of data. Some locations may at times be absent. If this problem persists, please advise webav@bom.gov.au

 back to top

WIII 22/07/2017 UTC

TAF WIII 220500Z 2206/2312 07010KT 8000 FEW022
BECMG 2212/2214 VRB05KT 5000 HZ SCT020

WSSS 21/07/2017 UTC

TAF WSSS 212300Z 2200/2306 17009KT 9999 FEW018CB SCT020

VCBI 22/07/2017 UTC

TAF VCBI 220340Z 2206/2312 22012KT 9999 SCT016 TX31/2208Z
TN26/2300Z PROB30
TEMPO 2222/2302 FEW012 SCT016 FEW020CB

VECC 21/07/2017 UTC

TAF VECC 212300Z 2200/2306 21007KT 2800 -RA HZ SCT018 BKN090
BECMG 2203/2205 3200 -RA HZ
TEMPO 2207/2211 1500 TSRA SCT015 FEW025CB BKN090
BECMG 2215/2217 2800 -RA HZ
BECMG 2303/2305 18006KT 3200 -RA HZ

VOMM 21/07/2017 UTC

TAF VOMM 212300Z 2200/2306 24010KT 6000 FEW020
BECMG 2209/2210 16010KT
TEMPO 2212/2218 SCT020 FEW025CB BKN100
BECMG 2218/2219 24010KT

VOTV 22/07/2017 UTC

TAF VOTV 220500Z 2206/2312 30010KT 5000 DZ/HZ SCT015 BKN080 TEMP0
2209/2213 2000 TSRA/RA SCT008 SCT015 FEW025CB OVC080 BECMG 2216/2217
33005KT 4000 HZ TEMPO 2300/2302 2000 RA/BR BECMG 2305/2306 30010KT
6000 TEMPO 2309/2312 FEW025CB

VABB 21/07/2017 UTC

TAF VABB 212300Z 2200/2306 25008G18KT 2000 -RA HZ SCT018 SCT025
FEW025TCU BKN090
TEMPO 2200/2209 1500 SHRA RA BKN010 FEW030CB OVC080
BECMG 2204/2206 2500 -DZ HZ
TEMPO 2209/2218 1500 SHRA RA BKN010 FEW030CB OVC080
BECMG 2218/2220 2000 -RA HZ
TEMPO 2218/2306 1500 SHRA RA BKN010 FEW030CB OVC080
BECMG 2304/2306 2500 -DZ HZ

VAAH 21/07/2017 UTC

TAF VAAH 212300Z 2200/2306 27008KT 2500 \u2013RA BR SCT012 SCT020
FEW030CB BKN080
TEMPO 2203/2206 27012KT 1500 TSRA
BECMG 2206/2208 25008KT 4000 \u2013RA HZ SCT012 BKN080
TEMPO 2217/2210 2500 \ u2013TSRA SCT012 SCT020 FEW030CB
BKN080
BECMG 2301/2303 21010KT 2500 \u2013RA HZ
BECMG 2304/2306 4000 \u2013RA HZ

VILK 21/07/2017 UTC

TAF VILK 212300Z 2200/2306 11004KT 3000 HZ BR SCT020 BKN100
BECMG 2204/2206 -RA SCT010 SCT020 OVC090 TEMPO 2200/2204
1500 TSRA FEW030CB BECMG 2214/2216 VRB02KT 3000 RA/TSRA TEMPO
2222/2304 1500 TSRA FEW030CB OVC090 BECMG 2304/2306 13005KT
4000 HZ

VANP 21/07/2017 UTC

TAF VANP 212300Z 2200/2306 VRB03KT 3000 HZ RA SCT015 SCT020 BKN080
BECMG 2204/2206 23008KT 5000 HZ RA SCT015 SCT025 BKN090
BECMG 2212/2214 25003KT 3000 HZ RA FEW015 SCT025 BKN080
BECMG 2304/2306 23008KT 5000 HZ RA FEW018 SCT025 BKN090
TEMPO 2208/2212 / 2214/2218 29010G20KT 1500 TSRA SCT010
SCT015 FEW030CB OVC080

VRMM 21/07/2017 UTC

TAF VRMM 212300Z 2200/2306 29010KT 9999 FEW018 TEMPO 2200/2204 5000
-TSRA FEW017CB

VOHS 21/07/2017 UTC

TAF VOHS 212300Z 2200/2306 25007KT 5000 –DZ HZ SCT015 BKN100 TEMPO
2200/2203 30010KT 3000 –DZ HZ BKN010 BECMG 2203/2205 27010KT 6000
SCT015 SCT025 BKN100 TEMPO 2209/2215 26015KT 3000 TSRA BKN010
FEW030CB OVC080 BECMG 2215/2217 25007KT 5000 –DZ HZ SCT015 BKN10
BECMG 2303/2305 25007G17KT 6000 SCT015 SCT025

OPKC 22/07/2017 UTC

TAF OPKC 220400Z 2206/2312 24008G18KT 6000 SCT020 BKN030 BECMG
2215/2217 25005G15KT 6000 SCT020
SCT030 FM 222100 27005G15KT 5000 DZ SCT018 BKN020 FM 230600
24005G15KT 6000 SCT020 BKN030

OBBI 21/07/2017 UTC

TAF OBBI 212300Z 2200/2306 VRB05KT CAVOK BECMG 2208/2210 03010KT
BECMG 2218/2220 VRB05KT PROB30 TEMPO 2301/2306 5000 HZ NSC

OMAA 21/07/2017 UTC

TAF OMAA 212300Z 2200/2306 04006KT 8000 NSC
BECMG 2201/2203 16008KT
BECMG 2208/2210 34013KT
BECMG 2219/2221 09006KT

OMDB 21/07/2017 UTC

TAF OMDB 212300Z 2200/2306 11005KT 8000 NSC
BECMG 2203/2205 17010KT
BECMG 2208/2210 35012KT
BECMG 2215/2217 05005KT

OOMS 21/07/2017 UTC

TAF OOMS 212300Z 2200/2306 VRB03KT 8000 SCT030 BECMG 2206/2208
01010KT BECMG 2218/2220 VRB03KT

OMSJ 21/07/2017 UTC

TAF OMSJ 212300Z 2200/2306 15009KT 8000 NSC
BECMG 2208/2210 35012KT
BECMG 2215/2217 05005KT

Malawi, Mauritius, South Africa, Zambia, Zimbabwe

The availability of aerodrome forecasts from overseas locations is dependent on the regular international exchange of data. Some locations may at times be absent. If this problem persists, please advise webav@bom.gov.au

 back to top

FIMP 22/07/2017 UTC

TAF FIMP 212300Z 2200/2306 VRB03KT 9999 SCT016 BECMG
2204/2206 09010KT TEMPO 2215/2303 7000 -SHRA FEW010 SCT015 BKN050

FMEE 21/07/2017 UTC

TAF FMEE 212300Z 2200/2306 18004KT 9999 FEW026 BECMG 2204/2205
08012KT BECMG 2215/2217 16005KT BECMG 2303/2305 11015KT

FLKK

TAF not available.

FWKI 22/07/2017 UTC

TAF FWKI 220420Z 2206/2312 08008KT CAVOK BECMG 2210/2212 9999 FEW030
0/2302 06004KT BECMG
2309/2311 12005KT

FAOR 22/07/2017 UTC

TAF FAOR 220400Z 2206/2312 27007KT CAVOK
BECMG 2211/2213 32012KT
BECMG 2217/2219 26007KT
BECMG 2308/2310 17010KT
TX20/2213ZTN10/2304Z

FVHA 22/07/2017 UTC

TAF FVHA 220400Z 2206/2312 08007KT CAVOK

FAWK 22/07/2017 UTC

TAF FAWK 220300Z 2204/2215 VRB02KT CAVOK
BECMG 2207/2209 31008KT
TX22/2213ZTN07/2204Z

FABL 22/07/2017 UTC

TAF FABL 220400Z 2206/2306 04005KT CAVOK
BECMG 2209/2211 34005KT
BECMG 2216/2218 VRB03KT
TX21/2213ZTNM05/2305Z

FALE 22/07/2017 UTC

TAF FALE 220400Z 2206/2312 23008KT 9999 BKN018 BKN028
219 26007KT
BECMG 2308/2310 17010KT
TX20/2213ZTN10/2304Z

YPCC 21/07/2017 UTC

TAF YPCC 212302Z 2200/2224
13016KT 9999 -SHRA SCT022
RMK
T 25 26 26 26 Q 1015 1016 1014 1013

United States (includes Hawaii) and Mexican emergency/alternates

The availability of aerodrome forecasts from overseas locations is dependent on the regular international exchange of data. Some locations may at times be absent. If this problem persists, please advise webav@bom.gov.au

 back to top

PHNL 22/07/2017 UTC

TAF AMD PHNL 220324Z 2203/2306 05014G22KT P6SM FEW025 SCT045
FM220600 05010KT P6SM VCSH SCT025 BKN040
FM222000 06012G20KT P6SM FEW025 SCT045
FM230500 06009KT P6SM FEW025 SCT045

PHLI 21/07/2017 UTC

TAF PHLI 212334Z 2200/2224 06014KT P6SM SCT025 SCT060
FM220800 06011KT P6SM VCSH SCT020 BKN035

PHOG 21/07/2017 UTC

TAF PHOG 212334Z 2200/2224 05016G24KT P6SM FEW035 SCT050
FM220500 06012G20KT P6SM VCSH SCT030 BKN050
FM221000 06010KT P6SM VCSH SCT030 BKN050
FM222000 06015G25KT P6SM FEW030 SCT050

PHTO 22/07/2017 UTC

TAF PHTO 220411Z 2204/2224 26005KT P6SM VCSH SCT025 OVC040
TEMPO 2204/2208 3SM SHRA BR BKN025
FM220800 25006KT 5SM -SHRA BKN025 BKN040
FM222000 06010KT P6SM VCSH SCT025 BKN050

PKMJ 21/07/2017 UTC

TAF PKMJ 212320Z 2200/2224 10009KT P6SM VCSH FEW015 SCT050 BKN300

KLAX 22/07/2017 UTC

TAF KLAX 220303Z 2203/2306 26008KT P6SM FEW010
FM220900 VRB03KT P6SM OVC009
FM221200 VRB03KT 6SM BR OVC012
FM221700 24006KT 6SM HZ SCT015
FM221900 26011KT P6SM SKC
FM230400 26007KT P6SM BKN009

KONT 21/07/2017 UTC

TAF KONT 212320Z 2200/2306 25011G18KT P6SM SKC
FM220400 26008KT P6SM SKC
FM220700 VRB04KT P6SM SKC
FM222100 25011G18KT P6SM SKC
FM230400 26008KT P6SM SKC

KPMD 22/07/2017 UTC

TAF KPMD 220304Z 2203/2224 26014KT P6SM SKC
FM220700 21007KT P6SM SKC
FM221300 VRB03KT P6SM SKC
FM222000 26008KT P6SM SKC
FM222200 26014G20KT P6SM SKC

KSAN 22/07/2017 UTC

TAF KSAN 220306Z 2203/2306 28006KT P6SM FEW015
FM220600 VRB04KT P6SM BKN013
FM221700 VRB04KT P6SM SCT015
FM222000 27008KT P6SM SKC
FM230200 VRB04KT P6SM FEW015
FM230500 VRB04KT P6SM BKN013

KLAS 22/07/2017 UTC

TAF KLAS 220236Z 2203/2306 21008KT P6SM SCT150 SCT250
FM221700 05006KT P6SM SCT150 SCT250
FM222100 11007KT P6SM SCT150 SCT250
FM230200 21008KT P6SM SCT150 SCT250

KOAK 21/07/2017 UTC

TAF KOAK 212333Z 2200/2306 28012KT P6SM SKC
FM220600 29006KT P6SM SKC
FM220900 28005KT P6SM SCT010
FM221100 31004KT P6SM BKN010
FM221600 29005KT P6SM SCT010
FM221800 29012KT P6SM SKC
FM230400 31005KT P6SM SKC

KSFO 22/07/2017 UTC

TAF AMD KSFO 220310Z 2203/2306 28015KT P6SM SKC
FM220700 29008KT P6SM FEW012
FM221200 28005KT P6SM SCT010
TEMPO 2213/2216 BKN010
FM221700 29006KT P6SM FEW012
FM222000 29015G22KT P6SM SKC
FM230400 29013KT P6SM FEW010

KSMF 21/07/2017 UTC

TAF KSMF 212326Z 2200/2224 19007KT P6SM SKC
FM220600 16009KT P6SM SKC
FM221700 21007KT P6SM SKC

KSCK 21/07/2017 UTC

TAF KSCK 212326Z 2200/2224 29010KT P6SM SKC

KFAT 21/07/2017 UTC

TAF KFAT 212320Z 2200/2224 31008KT P6SM SKC

KJFK 22/07/2017 UTC

TAF KJFK 220225Z 2202/2306 19008KT P6SM FEW060 BKN260
FM220700 35005KT P6SM SCT060
FM221400 10006KT P6SM FEW060
FM221800 19008KT P6SM SCT050 BKN200
FM222300 17006KT P6SM SCT050 OVC120

KPHL 21/07/2017 UTC

TAF KPHL 212323Z 2200/2306 25005KT P6SM SCT250
FM221500 VRB05KT P6SM SCT200
FM222000 23007KT P6SM BKN050 PROB30 2222/2224 4SM -TSRA
OVC025CB
FM230000 VRB04KT P6SM OVC050 PROB30 2300/2302 4SM -TSRA
OVC025CB

KPIT 22/07/2017 UTC

TAF KPIT 220411Z 2204/2306 25005KT P6SM FEW008 BKN015
FM220600 00000KT 3SM BR SCT020
FM220800 00000KT 2SM BR BKN015
FM221300 19007KT P6SM -SHRA VCTS OVC035CB

KDEN 22/07/2017 UTC

TAF AMD KDEN 220349Z 2204/2306 01013G21KT P6SM VCSH SCT045 BKN070 BKN100
TEMPO 2204/2206 5SM -RA BKN040 OVC060
FM220800 28008KT P6SM VCSH SCT045 BKN060 OVC080
FM221100 21007KT P6SM VCSH FEW050 BKN070 OVC110
FM221700 04006KT P6SM SCT080 BKN120
FM222300 10007KT P6SM SCT120 BKN200

KMCI 21/07/2017 UTC

TAF KMCI 212320Z 2200/2224 19012KT P6SM FEW250
FM220500 20012KT P6SM FEW250 WS020/22045KT
FM221300 22010KT P6SM FEW250
FM221700 25008KT P6SM FEW250

KDFW 22/07/2017 UTC

TAF KDFW 220253Z 2203/2306 13011KT P6SM SKC
FM221000 17009KT P6SM FEW080

KAUS 21/07/2017 UTC

TAF KAUS 212340Z 2200/2306 17007KT P6SM FEW080 SCT250
FM221100 18007KT P6SM SCT015 SCT250
FM230000 15009KT P6SM OVC250

KELP 21/07/2017 UTC

TAF KELP 212330Z 2200/2224 13010KT P6SM VCTS SCT050CB BKN140 BKN250
TEMPO 2200/2202 VRB27G37KT 3SM TSRA BKN040CB OVC100
FM220600 24010KT P6SM VCSH SCT060 BKN100 BKN250
FM221200 16006KT P6SM VCSH SCT060 OVC100
FM221800 19010KT P6SM VCTS SCT050CB BKN100 BKN200

KIAH 22/07/2017 UTC

TAF KIAH 220305Z 2203/2306 19005KT P6SM BKN250
FM221600 18004KT P6SM VCTS SCT045CB SCT250
FM222300 16007KT P6SM VCSH FEW040 BKN250

KSAT 21/07/2017 UTC

TAF KSAT 212340Z 2200/2306 12012KT P6SM FEW080 FEW250
FM221300 17005KT P6SM BKN019
FM221600 18007KT P6SM FEW040

KTUS 22/07/2017 UTC

TAF AMD KTUS 220337Z 2204/2224 16008KT P6SM SCT070 BKN100 BKN200
FM221500 22007KT P6SM SCT080
FM221800 30008KT P6SM SCT070

MMCU 22/07/2017 UTC

TAF MMCU 220442Z 2206/2306 16005KT P6SM SCT020 BKN080
TEMPO 2206/2210 5SM RA BKN020
FM221000 16005KT P6SM SCT020 BKN100
FM221900 13010KT P6SM SCT020 BKN080
PROB40 2222/2302 5SM TSRA BKN020CB

MMHO 21/07/2017 UTC

TAF MMHO 211632Z 2118/2218 20010KT P6SM SCT030CB BKN080 OVC250
FM220600 18005KT P6SM SCT080 BKN250
FM221700 18010KT P6SM BKN080 BKN250

MMLT 22/07/2017 UTC

TAF MMLT 220442Z 2206/2306 14005KT P6SM BKN200
FM221800 04010KT P6SM SKC
FM230400 14005KT P6SM SKC

MMSD 22/07/2017 UTC

TAF MMSD 220442Z 2206/2306 12008KT 6SM HZ SKC
FM221800 12010KT P6SM SCT030
FM230200 12008KT P6SM SKC

Papua New Guinea, Southwest Pacific

The availability of aerodrome forecasts from overseas locations is dependent on the regular international exchange of data. Some locations may at times be absent. If this problem persists, please advise webav@bom.gov.au

 back to top

NWWW 21/07/2017 UTC

TAF NWWW 212300Z 2200/2224 18010KT 9999 SCT050 BECMG 2205/2207 VRB03KT

NFFN 21/07/2017 UTC

TAF NFFN 212311Z 2200/2224
27010KT 9999 FEW028 SCT100
BECMG 2204/2206 08007KT
BECMG 2222/2224 28010KT

NFNA 21/07/2017 UTC

TAF NFNA 212313Z 2200/2224
08008KT 9999 SCT018 BKN040
BECMG 2205/2207 VRB03KT
PROB30 TEMPO 2217/2220 0100 FG FEW018 SCT040
BECMG 2220/2222 10010KT

NFTF 21/07/2017 UTC

TAF NFTF 212312Z 2200/2224
02010KT 9999 SCT008 BKN016

NSTU 21/07/2017 UTC

TAF NSTU 212334Z 2200/2224 11015KT P6SM FEW025 SCT040

NVVV 22/07/2017 UTC

TAF NVVV 220430Z 2206/2306 12012KT 9999 BKN020 OVC060
INTER 2206/2212 9000 BR SCT016 BKN018
BECMG 2206/2208 12006KT

NCRG 21/07/2017 UTC

TAF NCRG 212312Z 2200/2224
10013KT 9999 SCT020

NTAA 21/07/2017 UTC

TAF NTAA 212300Z 2200/2306 VRB05KT 9999 FEW023 SCT050

NTTG

TAF not available.

NTTO

TAF not available.

NSFA 21/07/2017 UTC

TAF NSFA 212312Z 2200/2224
09010KT 9999 FEW020 SCT100

ANYN 22/07/2017 UTC

TAF ANYN 220406Z 2206/2306 12012KT 9999 -SHRA SCT016 SCT030 BKN120
INTER 2206/2212 4000 +SHRA BKN008
T 28 26 24 24 Q 1007 1009 1008 1006

AGGH 21/07/2017 UTC

TAF AGGH 212325Z 2200/2224 09012KT 9999 SCT020

FM220900 VRB03KT 9999 FEW016

T 31 32 31 26 Q 1012 1010 1009 1011

AGGM 21/07/2017 UTC

TAF AGGM 212325Z 2200/2224 12012KT 9999 SCT020

FM221000 09005KT 9999 FEW016 SCT028

Q 1012 1010 1009 1011

AGGN 21/07/2017 UTC

TAF AGGN 212325Z 2200/2224 14015KT 9999 SCT019

FM221000 09005KT 9999 FEW016 SCT028

Q 1012 1010 1009 1011

AYPY 22/07/2017 UTC

TAF AYPY 220400Z 2206/2306 16015KT 9999 SCT020 SCT140
FM221200 16010KT 9999 SCT040

AYNZ

TAF not available.

AYMD

TAF not available.

AYMH

TAF not available.

AYTA

TAF not available.

PKMJ 21/07/2017 UTC

TAF PKMJ 212320Z 2200/2224 10009KT P6SM VCSH FEW015 SCT050 BKN300

NGTA 21/07/2017 UTC

TAF NGTA 212313Z 2200/2224
10014KT 9999 SCT018 BKN040 BKN100
PROB30 TEMPO 2200/2212 09015G25KT 5000 TSRA FEW017CB

PTRO 21/07/2017 UTC

TAF PTRO 212320Z 2200/2224 28012KT P6SM VCSH SCT016 BKN120 BKN290
TEMPO 2200/2204 6SM SHRA BKN015 BKN120 OVC250
FM220600 21013G22KT P6SM VCSH SCT016 SCT030 BKN120

YLHI 21/07/2017 UTC

TAF AMD YLHI 212314Z 2123/2224
21015G25KT 9999 -SHRA SCT030
FM220700 21012KT 9999 -SHRA SCT030
FM221300 23008KT 9999 SCT040
FM222200 29010KT 9999 SCT030
INTER 2123/2211 21015G25KT 4000 SHRA SCT015
RMK FM212300 MOD TURB BLW 5000FT TILL220700
T 17 18 18 16 Q 1018 1018 1018 1019

YSNF 22/07/2017 UTC

TAF AMD YSNF 220021Z 2200/2224
23025G35KT 9999 -SHRA SCT030 BKN050
FM220600 23018G28KT 9999 -SHRA SCT030
FM222000 23014KT 9999 -SHRA SCT035
INTER 2200/2206 VRB30G45KT 2000 SHRA SCT015
INTER 2206/2212 VRB30G40KT 5000 SHRA SCT015
RMK FM220000 MOD TURB BLW 5000FT TILL221400
T 18 18 16 16 Q 1012 1011 1013 1015

Indonesia, Timor Leste, Papua New Guinea

The availability of aerodrome forecasts from overseas locations is dependent on the regular international exchange of data. Some locations may at times be absent. If this problem persists, please advise webav@bom.gov.au

 back to top

WAAA 22/07/2017 UTC

TAF WAAA 220500Z 2206/2312 30008KT 9000 FEW020 BECMG 2211/2213 10004KT BECMG 2301/2303
30010KT

WAMM 22/07/2017 UTC

TAF WAMM 2206/2312 14008KT 9999 SCT022
PROB40 TEMPO 2211/2214 7000 -RA SCT018
BECMG 2215/2217 07002KT FEW022

WAMP

TAF not available.

WAJJ 22/07/2017 UTC

TAF WAJJ 212300Z 2200/2224 13004KT 9999 SCT014
PROB30 TEMPO 2200/2203 -RA
BECMG 2200/2202 13009KT
TEMPO 2204/2207 VCSH FEW012CB FEW013
BECMG 2209/2211 00000KT
BECMG 2217/2219 SCT010
BECMG 2221/2223 13004KT SCT014

WAPP 22/07/2017 UTC

TAF WAPP 211700Z 2118/2218 15007KT 7000 -RA BKN016
TEMPO 2122/2201 9999 NSW

WABB 22/07/2017 UTC

TAF WABB 220500Z 2206/2312 28008KT 9000 BKN018
TEMPO 2206/2208 -RA
BECMG 2210/2212 00000KT SCT018

WPDL 21/07/2017 UTC

TAF WPDL 212309Z 2200/2212
15006KT CAVOK
FM220100 36008KT CAVOK
FM220500 04009KT CAVOK
RMK
T 26 30 30 28 Q 1015 1015 1013 1014

WATT 22/07/2017 UTC

TAF WATT 220500Z 2206/2306 11018KT 9999 FEW020
BECMG 2210/2212 10006KT 8000

WIII 22/07/2017 UTC

TAF WIII 220500Z 2206/2312 07010KT 8000 FEW022
BECMG 2212/2214 VRB05KT 5000 HZ SCT020

WIHH 22/07/2017 UTC

TAF WIHH 211700Z 2118/2218 20003KT 4000 HZ SCT022 BECMG 2202/2204 04008KT 6000 SCT020
TEMPO 2210/2213 30010KT 5000 RA FEW018CB SCT016

WIMM 22/07/2017 UTC

TAF WIMM 212300Z 2200/2224 VRB03KT 5000 HZ FEW017CB BKN018
BECMG 2205/2206 06010KT 9000 SCT018
BECMG 2210/2212 VRB03KT 4000 HZ

WARR 22/07/2017 UTC

TAF WARR 220500Z 2206/2306 10012KT 9999 FEW020
BECMG 2217/2219 26005KT
BECMG 2220/2222 5000 HZ
BECMG 2300/2302 11010KT 9999 NSW

WADD 22/07/2017 UTC

TAF WADD 220500Z 2206/2306 09010KT 9999 SCT017
TEMPO 2212/2216 BKN016
TEMPO 2220/2224 VRB05KT

AYPY 22/07/2017 UTC

TAF AYPY 220400Z 2206/2306 16015KT 9999 SCT020 SCT140
FM221200 16010KT 9999 SCT040

AYNZ

TAF not available.

AYMH

TAF not available.

AYMD

TAF not available.

AYHK

TAF not available.

AYTK

TAF not available.

AYVN

TAF not available.

AYWK

TAF not available.

AYGA

TAF not available.

AYDU

TAF not available.

AYMS

TAF not available.

AYRB

TAF not available.

AYTB

TAF not available.

AYKI

TAF not available.

AYKT

TAF not available.

AYBK

TAF not available.

AYKM

TAF not available.

AYKY

TAF not available.

AYMO

TAF not available.

AYKV

TAF not available.

Accessing this Service

By entering this site, you acknowledge that this information is produced solely for use by the aviation industry, and you are aware that any information for the purposes of flight planning should be obtained from Airservices Australia.